createdAt,value
2018-03-14T00:02:22.876Z,89.70
2018-03-14T00:04:50.291Z,90.60
2018-03-14T00:07:17.726Z,90.30
2018-03-14T00:09:45.146Z,89.80
2018-03-14T00:12:12.571Z,90.60
2018-03-14T00:14:40.013Z,90.90
2018-03-14T00:17:07.439Z,90.50
2018-03-14T00:19:35.008Z,90.10
2018-03-14T00:22:02.432Z,90.00
2018-03-14T00:24:29.867Z,90.30
2018-03-14T00:26:57.301Z,90.10
2018-03-14T00:29:24.726Z,90.10
2018-03-14T00:31:52.930Z,88.60
2018-03-14T00:34:20.387Z,88.60
2018-03-14T00:36:47.819Z,89.10
2018-03-14T00:39:15.255Z,88.60
2018-03-14T00:41:42.708Z,90.10
2018-03-14T00:44:10.149Z,90.00
2018-03-14T00:46:37.591Z,90.20
2018-03-14T00:49:05.018Z,90.60
2018-03-14T00:51:32.452Z,91.00
2018-03-14T00:54:00.649Z,92.20
2018-03-14T00:56:28.084Z,92.20
2018-03-14T00:58:55.503Z,92.60
2018-03-14T01:01:22.944Z,93.10
2018-03-14T01:03:50.443Z,93.20
2018-03-14T01:06:17.883Z,92.90
2018-03-14T01:08:45.332Z,93.70
2018-03-14T01:11:12.807Z,94.40
2018-03-14T01:13:40.239Z,94.30
2018-03-14T01:16:07.712Z,94.10
2018-03-14T01:18:35.133Z,94.90
2018-03-14T01:21:02.592Z,94.80
2018-03-14T01:23:30.022Z,93.00
2018-03-14T01:25:57.571Z,93.40
2018-03-14T01:28:25.020Z,92.90
2018-03-14T01:30:52.443Z,93.10
2018-03-14T01:33:19.887Z,93.30
2018-03-14T01:35:47.331Z,93.10
2018-03-14T01:38:14.792Z,93.20
2018-03-14T01:40:42.233Z,93.10
2018-03-14T01:43:09.662Z,93.40
2018-03-14T01:45:37.881Z,93.60
2018-03-14T01:48:05.338Z,93.50
2018-03-14T01:50:32.771Z,93.40
2018-03-14T01:53:11.903Z,93.60
2018-03-14T01:55:39.324Z,93.90
2018-03-14T01:58:06.764Z,94.10
2018-03-14T02:00:34.196Z,94.50
2018-03-14T02:03:01.631Z,94.30
2018-03-14T02:05:29.065Z,94.60
2018-03-14T02:07:57.272Z,94.90
2018-03-14T02:10:24.695Z,94.50
2018-03-14T02:12:52.135Z,94.50
2018-03-14T02:15:19.570Z,93.90
2018-03-14T02:17:47.039Z,93.70
2018-03-14T02:20:14.487Z,93.50
2018-03-14T02:22:41.910Z,93.30
2018-03-14T02:25:09.344Z,94.00
2018-03-14T02:27:37.544Z,94.00
2018-03-14T02:30:04.979Z,93.90
2018-03-14T02:32:32.407Z,93.40
2018-03-14T02:34:59.844Z,93.80
2018-03-14T02:37:27.276Z,92.60
2018-03-14T02:39:54.727Z,92.50
2018-03-14T02:42:22.144Z,92.30
2018-03-14T02:44:50.359Z,92.80
2018-03-14T02:47:17.775Z,92.40
2018-03-14T02:49:45.204Z,92.10
2018-03-14T02:52:13.615Z,91.90
2018-03-14T02:54:41.051Z,91.90
2018-03-14T02:57:08.481Z,92.00
2018-03-14T02:59:35.933Z,91.80
2018-03-14T03:02:03.374Z,91.90
2018-03-14T03:04:30.784Z,91.60
2018-03-14T03:06:58.220Z,91.60
2018-03-14T03:09:25.654Z,91.60
2018-03-14T03:11:53.084Z,91.90
2018-03-14T03:14:20.500Z,91.90
2018-03-14T03:16:47.943Z,92.00
2018-03-14T03:19:15.380Z,91.40
2018-03-14T03:21:42.823Z,91.30
2018-03-14T03:24:10.267Z,91.60
2018-03-14T03:26:38.480Z,91.20
2018-03-14T03:29:05.922Z,91.20
2018-03-14T03:31:33.341Z,90.80
2018-03-14T03:34:00.775Z,91.00
2018-03-14T03:36:28.258Z,91.30
2018-03-14T03:38:55.675Z,91.20
2018-03-14T03:41:23.115Z,91.50
2018-03-14T03:43:50.523Z,91.70
2018-03-14T03:46:17.951Z,92.10
2018-03-14T03:48:45.400Z,92.10
2018-03-14T03:51:12.843Z,92.80
2018-03-14T03:53:40.344Z,92.50
2018-03-14T03:56:07.716Z,92.50
2018-03-14T03:58:35.931Z,92.50
2018-03-14T04:01:03.378Z,92.50
2018-03-14T04:03:30.799Z,92.50
2018-03-14T04:05:58.247Z,92.80
2018-03-14T04:08:25.701Z,92.80
2018-03-14T04:10:53.125Z,92.40
2018-03-14T04:13:20.563Z,92.80
2018-03-14T04:15:48.001Z,92.90
2018-03-14T04:18:15.436Z,93.10
2018-03-14T04:20:43.631Z,92.50
2018-03-14T04:23:11.070Z,92.70
2018-03-14T04:25:38.500Z,92.70
2018-03-14T04:28:05.930Z,93.00
2018-03-14T04:30:33.372Z,92.90
2018-03-14T04:33:00.794Z,92.90
2018-03-14T04:35:28.228Z,92.90
2018-03-14T04:37:55.662Z,92.60
2018-03-14T04:40:23.110Z,92.50
2018-03-14T04:42:50.524Z,92.40
2018-03-14T04:45:17.975Z,92.50
2018-03-14T04:47:45.418Z,92.70
2018-03-14T04:50:12.869Z,92.80
2018-03-14T04:52:40.298Z,92.40
2018-03-14T04:55:07.746Z,92.20
2018-03-14T04:57:35.171Z,91.90
2018-03-14T05:00:02.605Z,92.00
2018-03-14T05:02:30.035Z,92.20
2018-03-14T05:04:57.536Z,91.80
2018-03-14T05:07:24.982Z,91.80
2018-03-14T05:09:52.414Z,91.60
2018-03-14T05:12:19.859Z,91.70
2018-03-14T05:14:47.317Z,91.50
2018-03-14T05:17:14.735Z,91.30
2018-03-14T05:19:42.184Z,91.30
2018-03-14T05:22:09.599Z,91.30
2018-03-14T05:24:37.038Z,91.50
2018-03-14T05:27:04.662Z,91.10
2018-03-14T05:29:32.878Z,91.80
2018-03-14T05:32:00.311Z,91.80
2018-03-14T05:34:27.748Z,91.90
2018-03-14T05:36:55.176Z,91.50
2018-03-14T05:39:22.624Z,91.90
2018-03-14T05:41:50.058Z,91.70
2018-03-14T05:44:17.518Z,91.70
2018-03-14T05:46:44.962Z,91.80
2018-03-14T05:49:12.426Z,91.90
2018-03-14T05:51:39.924Z,91.40
2018-03-14T05:54:07.340Z,91.40
2018-03-14T05:56:34.803Z,91.60
2018-03-14T05:59:02.279Z,92.00
2018-03-14T06:01:29.751Z,91.60
2018-03-14T06:03:57.192Z,91.60
2018-03-14T06:06:24.648Z,91.10
2018-03-14T06:08:52.123Z,90.90
2018-03-14T06:11:19.578Z,90.80
2018-03-14T06:13:47.056Z,91.80
2018-03-14T06:16:14.485Z,92.10
2018-03-14T06:18:41.915Z,91.50
2018-03-14T06:21:09.363Z,91.50
2018-03-14T06:23:36.828Z,91.40
2018-03-14T06:26:04.243Z,91.60
2018-03-14T06:28:31.711Z,92.40
2018-03-14T06:30:59.142Z,92.40
2018-03-14T06:33:26.571Z,91.90
2018-03-14T06:35:54.018Z,92.10
2018-03-14T06:38:21.456Z,92.10
2018-03-14T06:40:48.888Z,91.70
2018-03-14T06:43:17.072Z,91.50
2018-03-14T06:45:44.523Z,91.50
2018-03-14T06:48:11.964Z,91.30
2018-03-14T06:50:39.424Z,91.10
2018-03-14T06:53:06.930Z,90.80
2018-03-14T06:55:34.400Z,90.50
2018-03-14T06:58:01.865Z,90.40
2018-03-14T07:00:41.075Z,90.20
2018-03-14T07:03:20.381Z,89.10
2018-03-14T07:06:00.471Z,90.60
2018-03-14T07:08:27.937Z,90.50
2018-03-14T07:10:55.420Z,91.50
2018-03-14T07:13:22.879Z,91.50
2018-03-14T07:15:50.304Z,91.00
2018-03-14T07:18:17.765Z,91.70
2018-03-14T07:20:45.240Z,92.20
2018-03-14T07:23:12.740Z,91.90
2018-03-14T07:25:40.197Z,92.00
2018-03-14T07:28:08.456Z,91.90
2018-03-14T07:30:35.962Z,91.80
2018-03-14T07:33:03.426Z,91.70
2018-03-14T07:35:30.900Z,91.40
2018-03-14T07:37:58.349Z,91.60
2018-03-14T07:40:25.836Z,90.90
2018-03-14T07:42:53.288Z,91.10
2018-03-14T07:45:20.743Z,91.30
2018-03-14T07:47:48.192Z,91.80
2018-03-14T07:50:15.628Z,91.60
2018-03-14T07:52:43.132Z,91.90
2018-03-14T07:55:10.536Z,91.90
2018-03-14T07:57:37.998Z,91.90
2018-03-14T08:00:05.457Z,92.00
2018-03-14T08:02:32.923Z,92.00
2018-03-14T08:05:00.388Z,92.30
2018-03-14T08:07:27.844Z,91.10
2018-03-14T08:09:55.398Z,91.40
2018-03-14T08:12:22.857Z,91.00
2018-03-14T08:14:50.297Z,91.10
2018-03-14T08:17:17.720Z,91.20
2018-03-14T08:19:46.056Z,91.70
2018-03-14T08:22:13.530Z,91.70
2018-03-14T08:24:41.182Z,92.50
2018-03-14T08:27:08.737Z,92.40
2018-03-14T08:29:36.235Z,92.10
2018-03-14T08:32:04.459Z,92.70
2018-03-14T08:34:31.904Z,92.70
2018-03-14T08:36:59.378Z,91.90
2018-03-14T08:39:26.822Z,93.40
2018-03-14T08:41:54.262Z,92.60
2018-03-14T08:44:21.761Z,92.70
2018-03-14T08:46:53.625Z,91.80
2018-03-14T08:49:21.057Z,92.10
2018-03-14T08:51:48.512Z,91.00
2018-03-14T08:54:15.979Z,89.30
2018-03-14T08:56:43.412Z,90.90
2018-03-14T08:59:10.879Z,90.40
2018-03-14T09:01:38.324Z,90.10
2018-03-14T09:04:05.764Z,90.30
2018-03-14T09:06:33.185Z,89.30
2018-03-14T09:09:00.630Z,89.20
2018-03-14T09:11:28.084Z,89.20
2018-03-14T09:13:55.509Z,89.80
2018-03-14T09:16:22.936Z,87.60
2018-03-14T09:18:51.127Z,81.80
2018-03-14T09:21:18.610Z,81.60
2018-03-14T09:23:46.828Z,82.10
2018-03-14T09:26:14.329Z,82.00
2018-03-14T09:28:41.806Z,81.30
2018-03-14T09:31:09.305Z,78.80
2018-03-14T09:33:36.749Z,77.70
2018-03-14T09:36:04.208Z,74.80
2018-03-14T09:38:32.509Z,73.30
2018-03-14T09:40:59.993Z,74.10
2018-03-14T09:43:27.514Z,72.40
2018-03-14T09:45:55.806Z,69.80
2018-03-14T09:48:24.897Z,68.30
2018-03-14T09:51:02.229Z,67.70
2018-03-14T09:53:29.706Z,67.70
2018-03-14T09:55:57.152Z,67.70
2018-03-14T09:58:24.583Z,68.10
2018-03-14T10:00:52.879Z,67.30
2018-03-14T10:03:20.394Z,68.20
2018-03-14T10:05:47.828Z,66.20
2018-03-14T10:08:15.268Z,67.60
2018-03-14T10:10:42.907Z,68.10
2018-03-14T10:13:10.352Z,69.00
2018-03-14T10:15:37.870Z,70.00
2018-03-14T10:18:05.270Z,70.90
2018-03-14T10:20:32.786Z,71.80
2018-03-14T10:23:00.244Z,72.40
2018-03-14T10:25:27.788Z,72.10
2018-03-14T10:27:55.163Z,71.90
2018-03-14T10:30:22.667Z,72.10
2018-03-14T10:32:50.317Z,71.70
2018-03-14T10:35:17.796Z,68.50
2018-03-14T10:37:45.240Z,68.00
2018-03-14T10:40:12.689Z,67.00
2018-03-14T10:42:40.132Z,66.90
2018-03-14T10:45:07.627Z,66.40
2018-03-14T10:47:35.079Z,66.30
2018-03-14T10:50:02.541Z,66.00
2018-03-14T10:52:29.991Z,64.50
2018-03-14T10:54:58.430Z,65.50
2018-03-14T10:57:26.669Z,63.70
2018-03-14T10:59:54.116Z,63.60
2018-03-14T11:02:23.343Z,62.70
2018-03-14T11:04:50.808Z,62.50
2018-03-14T11:07:18.297Z,62.30
2018-03-14T11:09:46.499Z,60.20
2018-03-14T11:12:13.946Z,60.10
2018-03-14T11:14:41.392Z,58.30
2018-03-14T11:17:08.859Z,56.00
2018-03-14T11:19:36.317Z,53.50
2018-03-14T11:22:03.794Z,51.40
2018-03-14T11:24:31.233Z,49.20
2018-03-14T11:26:58.700Z,47.80
2018-03-14T11:29:26.159Z,45.40
2018-03-14T11:31:53.655Z,43.10
2018-03-14T11:34:21.119Z,38.90
2018-03-14T11:36:49.317Z,42.70
2018-03-14T11:39:16.876Z,42.50
2018-03-14T11:41:44.310Z,40.70
2018-03-14T11:44:11.744Z,37.80
2018-03-14T11:46:39.185Z,36.90
2018-03-14T11:49:06.616Z,37.10
2018-03-14T11:51:34.078Z,38.20
2018-03-14T11:54:01.518Z,40.50
2018-03-14T11:56:28.987Z,40.50
2018-03-14T11:58:56.433Z,39.70
2018-03-14T12:01:24.655Z,32.00
2018-03-14T12:03:52.095Z,31.90
2018-03-14T12:06:19.544Z,30.80
2018-03-14T12:08:47.036Z,29.30
2018-03-14T12:11:14.460Z,32.60
2018-03-14T12:13:41.914Z,34.20
2018-03-14T12:16:09.372Z,35.40
2018-03-14T12:18:36.895Z,37.10
2018-03-14T12:21:05.104Z,33.00
2018-03-14T12:23:32.616Z,32.90
2018-03-14T12:26:00.085Z,31.50
2018-03-14T12:28:27.673Z,28.40
2018-03-14T12:30:55.134Z,25.40
2018-03-14T12:33:22.564Z,25.80
2018-03-14T12:35:50.780Z,24.10
2018-03-14T12:38:18.222Z,24.10
2018-03-14T12:40:45.669Z,23.80
2018-03-14T12:43:13.112Z,24.20
2018-03-14T12:45:40.647Z,24.10
2018-03-14T12:48:08.087Z,22.90
2018-03-14T12:50:35.528Z,22.10
2018-03-14T12:53:02.971Z,22.40
2018-03-14T12:55:30.433Z,21.80
2018-03-14T12:57:57.904Z,22.20
2018-03-14T13:00:25.361Z,23.40
2018-03-14T13:02:52.819Z,23.90
2018-03-14T13:05:20.320Z,25.90
2018-03-14T13:07:47.773Z,26.80
2018-03-14T13:10:15.220Z,27.00
2018-03-14T13:12:42.686Z,27.70
2018-03-14T13:15:10.898Z,30.00
2018-03-14T13:17:38.387Z,29.90
2018-03-14T13:20:05.852Z,30.90
2018-03-14T13:22:33.304Z,28.90
2018-03-14T13:25:00.751Z,27.10
2018-03-14T13:27:28.241Z,26.90
2018-03-14T13:29:55.821Z,26.40
2018-03-14T13:32:23.276Z,24.30
2018-03-14T13:34:50.783Z,24.80
2018-03-14T13:37:18.216Z,25.70
2018-03-14T13:39:45.687Z,25.50
2018-03-14T13:42:13.141Z,25.10
2018-03-14T13:44:40.572Z,25.70
2018-03-14T13:47:08.022Z,26.50
2018-03-14T13:49:36.301Z,26.30
2018-03-14T13:52:04.503Z,25.00
2018-03-14T13:54:31.961Z,25.00
2018-03-14T13:56:59.414Z,23.90
2018-03-14T13:59:26.868Z,21.80
2018-03-14T14:01:54.545Z,20.10
2018-03-14T14:04:21.993Z,19.00
2018-03-14T14:06:49.429Z,20.00
2018-03-14T14:09:16.888Z,20.70
2018-03-14T14:11:44.320Z,21.70
2018-03-14T14:14:12.580Z,19.90
2018-03-14T14:16:40.015Z,19.90
2018-03-14T14:19:07.505Z,18.90
2018-03-14T14:21:35.025Z,19.00
2018-03-14T14:24:02.488Z,18.30
2018-03-14T14:26:29.960Z,17.60
2018-03-14T14:28:57.497Z,17.40
2018-03-14T14:31:24.977Z,18.10
2018-03-14T14:33:52.508Z,19.70
2018-03-14T14:36:20.005Z,21.50
2018-03-14T14:38:47.466Z,23.00
2018-03-14T14:41:14.960Z,24.30
2018-03-14T14:43:42.409Z,25.50
2018-03-14T14:46:09.872Z,24.50
2018-03-14T14:48:37.334Z,22.40
2018-03-14T14:51:05.557Z,20.60
2018-03-14T14:53:33.026Z,20.50
2018-03-14T14:56:00.621Z,19.60
2018-03-14T14:58:28.051Z,19.10
2018-03-14T15:00:55.499Z,18.70
2018-03-14T15:03:22.974Z,18.40
2018-03-14T15:05:50.401Z,18.20
2018-03-14T15:08:17.839Z,18.80
2018-03-14T15:10:45.281Z,20.30
2018-03-14T15:13:12.743Z,22.40
2018-03-14T15:15:40.181Z,23.50
2018-03-14T15:18:07.752Z,24.80
2018-03-14T15:20:35.209Z,26.30
2018-03-14T15:23:02.650Z,27.40
2018-03-14T15:25:30.097Z,28.70
2018-03-14T15:27:57.605Z,29.80
2018-03-14T15:30:24.978Z,30.70
2018-03-14T15:32:52.448Z,32.90
2018-03-14T15:35:19.883Z,32.90
2018-03-14T15:37:47.365Z,33.80
2018-03-14T15:40:14.872Z,34.70
2018-03-14T15:42:42.352Z,35.60
2018-03-14T15:45:09.820Z,36.40
2018-03-14T15:47:37.258Z,36.50
2018-03-14T15:50:04.724Z,37.00
2018-03-14T15:52:32.161Z,37.10
2018-03-14T15:54:59.639Z,38.20
2018-03-14T15:57:27.105Z,38.40
2018-03-14T15:59:54.564Z,38.60
2018-03-14T16:02:22.020Z,39.20
2018-03-14T16:04:49.502Z,39.20
2018-03-14T16:07:17.006Z,40.50
2018-03-14T16:09:44.471Z,40.60
2018-03-14T16:12:11.922Z,41.10
2018-03-14T16:14:39.384Z,41.50
2018-03-14T16:17:06.857Z,42.10
2018-03-14T16:19:34.288Z,43.10
2018-03-14T16:22:01.747Z,43.40
2018-03-14T16:24:29.376Z,44.30
2018-03-14T16:26:56.863Z,44.50
2018-03-14T16:29:24.327Z,44.80
2018-03-14T16:31:51.792Z,45.30
2018-03-14T16:34:19.246Z,46.10
2018-03-14T16:36:46.707Z,46.50
2018-03-14T16:39:14.164Z,47.10
2018-03-14T16:41:41.628Z,48.10
2018-03-14T16:44:09.085Z,48.40
2018-03-14T16:46:36.523Z,48.80
2018-03-14T16:49:03.966Z,50.40
2018-03-14T16:51:31.436Z,52.00
2018-03-14T16:53:58.907Z,52.50
2018-03-14T16:56:26.367Z,53.20
2018-03-14T16:58:53.833Z,53.50
2018-03-14T17:01:24.143Z,54.10
2018-03-14T17:03:51.600Z,54.20
2018-03-14T17:06:19.095Z,54.30
2018-03-14T17:08:47.314Z,55.40
2018-03-14T17:11:14.744Z,55.30
2018-03-14T17:13:42.212Z,55.80
2018-03-14T17:16:09.647Z,56.00
2018-03-14T17:18:37.880Z,58.30
2018-03-14T17:21:05.316Z,58.20
2018-03-14T17:23:32.780Z,58.40
2018-03-14T17:26:00.204Z,59.10
2018-03-14T17:28:27.652Z,59.50
2018-03-14T17:30:55.132Z,60.40
2018-03-14T17:33:22.587Z,60.50
2018-03-14T17:35:50.041Z,61.20
2018-03-14T17:38:17.480Z,61.80
2018-03-14T17:40:44.942Z,63.30
2018-03-14T17:43:13.173Z,63.90
2018-03-14T17:45:40.622Z,63.90
2018-03-14T17:48:08.047Z,64.00
2018-03-14T17:50:35.507Z,64.50
2018-03-14T17:53:03.150Z,64.90
2018-03-14T17:55:30.594Z,65.00
2018-03-14T17:57:58.019Z,65.70
2018-03-14T18:00:25.473Z,66.00
2018-03-14T18:02:52.921Z,66.50
2018-03-14T18:05:20.374Z,66.80
2018-03-14T18:07:47.838Z,67.20
2018-03-14T18:10:15.295Z,68.00
2018-03-14T18:12:42.747Z,67.70
2018-03-14T18:15:10.196Z,68.30
2018-03-14T18:17:37.709Z,68.50
2018-03-14T18:20:05.136Z,68.50
2018-03-14T18:22:32.583Z,68.60
2018-03-14T18:25:00.052Z,69.00
2018-03-14T18:27:27.610Z,69.20
2018-03-14T18:29:55.778Z,69.60
2018-03-14T18:32:23.212Z,69.60
2018-03-14T18:34:50.831Z,69.70
2018-03-14T18:37:18.264Z,69.70
2018-03-14T18:39:45.716Z,70.00
2018-03-14T18:42:13.153Z,70.20
2018-03-14T18:44:40.599Z,70.40
2018-03-14T18:47:08.056Z,70.80
2018-03-14T18:49:35.514Z,71.30
2018-03-14T18:52:02.944Z,71.20
2018-03-14T18:54:30.399Z,71.80
2018-03-14T18:56:58.616Z,72.60
2018-03-14T18:59:26.103Z,72.60
2018-03-14T19:01:53.532Z,72.70
2018-03-14T19:04:20.978Z,72.60
2018-03-14T19:06:48.416Z,72.90
2018-03-14T19:09:15.871Z,73.00
2018-03-14T19:11:43.316Z,73.30
2018-03-14T19:14:10.773Z,73.50
2018-03-14T19:16:38.217Z,74.00
2018-03-14T19:19:05.736Z,74.00
2018-03-14T19:21:33.190Z,74.70
2018-03-14T19:24:00.646Z,74.80
2018-03-14T19:26:28.101Z,75.90
2018-03-14T19:28:55.542Z,76.50
2018-03-14T19:31:22.977Z,77.40
2018-03-14T19:33:50.409Z,78.10
2018-03-14T19:36:17.855Z,78.60
2018-03-14T19:38:45.312Z,78.90
2018-03-14T19:41:12.788Z,78.80
2018-03-14T19:43:40.238Z,79.30
2018-03-14T19:46:07.656Z,79.60
2018-03-14T19:48:35.102Z,80.50
2018-03-14T19:51:02.570Z,81.60
2018-03-14T19:53:30.016Z,83.10
2018-03-14T19:55:57.473Z,83.60
2018-03-14T19:58:24.911Z,83.80
2018-03-14T20:00:52.340Z,84.80
2018-03-14T20:03:20.564Z,85.40
2018-03-14T20:05:47.993Z,85.40
2018-03-14T20:08:15.435Z,85.30
2018-03-14T20:10:43.655Z,85.20
2018-03-14T20:13:11.088Z,85.10
2018-03-14T20:15:38.533Z,85.40
2018-03-14T20:18:05.968Z,85.60
2018-03-14T20:20:33.420Z,85.90
2018-03-14T20:23:00.849Z,86.20
2018-03-14T20:25:29.212Z,86.80
2018-03-14T20:27:56.648Z,86.30
2018-03-14T20:30:24.105Z,86.20
2018-03-14T20:32:51.535Z,87.10
2018-03-14T20:35:19.003Z,87.50
2018-03-14T20:37:47.215Z,88.40
2018-03-14T20:40:14.655Z,88.30
2018-03-14T20:42:42.091Z,88.60
2018-03-14T20:45:10.303Z,88.50
2018-03-14T20:47:37.752Z,88.50
2018-03-14T20:50:05.237Z,88.60
2018-03-14T20:52:33.396Z,89.10
2018-03-14T20:55:00.845Z,88.90
2018-03-14T20:57:28.279Z,88.60
2018-03-14T20:59:55.732Z,88.60
2018-03-14T21:02:23.167Z,88.30
2018-03-14T21:04:50.593Z,88.20
2018-03-14T21:07:18.052Z,88.00
2018-03-14T21:09:45.553Z,87.90
2018-03-14T21:12:13.000Z,88.00
2018-03-14T21:14:40.455Z,87.90
2018-03-14T21:17:07.899Z,87.90
2018-03-14T21:19:35.344Z,87.90
2018-03-14T21:22:02.790Z,88.10
2018-03-14T21:24:30.808Z,88.40
2018-03-14T21:26:59.014Z,89.10
2018-03-14T21:29:26.436Z,89.00
2018-03-14T21:31:53.888Z,88.80
2018-03-14T21:34:21.340Z,88.80
2018-03-14T21:36:48.788Z,89.00
2018-03-14T21:39:16.250Z,89.10
2018-03-14T21:41:43.684Z,88.90
2018-03-14T21:44:11.120Z,89.40
2018-03-14T21:46:38.582Z,89.30
2018-03-14T21:49:06.023Z,89.10
2018-03-14T21:51:33.449Z,89.30
2018-03-14T21:54:01.666Z,89.30
2018-03-14T21:56:29.164Z,89.30
2018-03-14T21:58:56.562Z,88.90
2018-03-14T22:01:23.969Z,89.20
2018-03-14T22:03:51.412Z,89.00
2018-03-14T22:06:18.882Z,89.60
2018-03-14T22:08:46.288Z,90.10
2018-03-14T22:11:13.729Z,90.20
2018-03-14T22:13:41.944Z,90.00
2018-03-14T22:16:09.463Z,90.00
2018-03-14T22:18:36.900Z,90.00
2018-03-14T22:21:04.342Z,89.50
2018-03-14T22:23:31.790Z,89.40
2018-03-14T22:25:59.241Z,89.40
2018-03-14T22:28:26.673Z,89.90
2018-03-14T22:30:54.115Z,89.60
2018-03-14T22:33:21.559Z,89.70
2018-03-14T22:35:49.954Z,89.50
2018-03-14T22:38:17.384Z,89.50
2018-03-14T22:40:44.838Z,89.00
2018-03-14T22:43:12.269Z,89.20
2018-03-14T22:45:39.704Z,89.60
2018-03-14T22:48:07.127Z,90.00
2018-03-14T22:50:35.345Z,90.00
2018-03-14T22:53:02.786Z,89.90
2018-03-14T22:55:30.245Z,90.10
2018-03-14T22:57:57.687Z,90.00
2018-03-14T23:00:25.124Z,90.10
2018-03-14T23:02:52.551Z,90.10
2018-03-14T23:05:19.996Z,90.10
2018-03-14T23:07:47.449Z,90.10
2018-03-14T23:10:14.889Z,90.10
2018-03-14T23:12:42.324Z,89.40
2018-03-14T23:15:09.765Z,89.30
2018-03-14T23:17:38.014Z,88.80
2018-03-14T23:20:05.470Z,88.70
2018-03-14T23:22:32.908Z,89.30
2018-03-14T23:25:00.335Z,88.60
2018-03-14T23:27:27.777Z,88.30
2018-03-14T23:29:55.265Z,89.10
2018-03-14T23:32:22.707Z,90.20
2018-03-14T23:34:50.195Z,90.50
2018-03-14T23:37:17.685Z,90.50
2018-03-14T23:39:45.093Z,90.60
2018-03-14T23:42:12.531Z,90.70
2018-03-14T23:44:39.980Z,90.90
2018-03-14T23:47:07.407Z,90.70
2018-03-14T23:49:34.852Z,90.70
2018-03-14T23:52:02.284Z,91.00
2018-03-14T23:54:29.734Z,91.00
2018-03-14T23:56:57.188Z,90.80
2018-03-14T23:59:24.615Z,91.00
